Time;durP1;ratioP1;P1;durP2;ratioP2;P2;SDS_P1;SDS_P2;PMS_P1;PMS_P2;Temp;Humidity;BMP_temperature;BMP_pressure;BME280_temperature;BME280_humidity;BME280_pressure;Samples;Min_cycle;Max_cycle;Signal;HPM_P1;HPM_P2
2024/04/12 00:01:10;;;;;;;7.60;2.30;;;;;;;10.65;54.85;102412.27;103770;1310;23052;-60
2024/04/12 00:03:38;;;;;;;4.10;2.30;;;;;;;10.69;55.31;102416.29;103827;1295;22698;-58
2024/04/12 00:06:14;;;;;;;3.70;2.10;;;;;;;10.73;55.32;102418.59;103616;1310;26749;-58
2024/04/12 00:08:40;;;;;;;4.10;2.10;;;;;;;10.77;55.03;102415.86;103734;1306;22610;-58
2024/04/12 00:11:07;;;;;;;4.90;2.10;;;;;;;10.80;54.92;102412.63;103774;1307;22657;-59
2024/04/12 00:13:40;;;;;;;3.70;1.80;;;;;;;10.87;55.23;102415.98;103724;1310;22669;-60
2024/04/12 00:16:08;;;;;;;3.70;2.00;;;;;;;10.93;55.42;102416.90;103535;1305;23139;-59
2024/04/12 00:18:36;;;;;;;3.90;1.80;;;;;;;10.96;55.14;102408.64;103857;1302;22595;-59
2024/04/12 00:21:03;;;;;;;5.00;1.80;;;;;;;10.98;54.99;102403.31;104189;1311;22519;-59
2024/04/12 00:23:30;;;;;;;7.30;1.90;;;;;;;11.00;55.09;102402.30;103781;1306;22567;-60
2024/04/12 00:25:59;;;;;;;2.80;1.40;;;;;;;11.05;55.27;102406.34;103492;1311;22779;-59
2024/04/12 00:28:33;;;;;;;6.20;2.00;;;;;;;11.07;55.84;102408.09;103707;1302;22613;-59
2024/04/12 00:31:03;;;;;;;4.20;1.90;;;;;;;11.08;55.95;102406.89;103811;1310;25389;-58
2024/04/12 00:33:34;;;;;;;4.40;1.80;;;;;;;11.10;55.91;102412.59;103803;1308;24260;-59
2024/04/12 00:36:13;;;;;;;4.70;1.80;;;;;;;11.14;55.78;102414.02;103830;1308;22736;-61
2024/04/12 00:38:41;;;;;;;4.70;1.90;;;;;;;11.16;55.99;102409.55;103753;1306;23809;-60
2024/04/12 00:41:14;;;;;;;4.10;1.70;;;;;;;11.19;56.20;102407.86;103876;1311;22740;-59
2024/04/12 00:43:47;;;;;;;3.00;1.60;;;;;;;11.20;56.21;102405.98;103893;1305;24245;-61
2024/04/12 00:46:19;;;;;;;2.80;1.50;;;;;;;11.22;57.03;102398.40;103901;1311;25321;-60
2024/04/12 00:48:45;;;;;;;8.00;1.80;;;;;;;11.27;56.23;102392.58;103932;1301;22603;-60
2024/04/12 00:51:17;;;;;;;5.70;2.40;;;;;;;11.32;56.43;102386.92;103440;1309;22558;-58
2024/04/12 00:53:45;;;;;;;4.10;1.90;;;;;;;11.33;56.12;102384.00;103608;1304;22563;-60
2024/04/12 00:56:13;;;;;;;1.80;1.20;;;;;;;11.36;56.25;102382.30;103809;1311;22687;-60
2024/04/12 00:58:41;;;;;;;4.30;1.80;;;;;;;11.38;56.77;102378.00;104409;1291;22608;-60
2024/04/12 01:01:17;;;;;;;3.70;1.70;;;;;;;11.36;56.27;102379.38;105933;1296;22678;-58
2024/04/12 01:03:47;;;;;;;2.60;1.80;;;;;;;11.39;56.59;102378.19;105861;1308;22509;-59
2024/04/12 01:06:24;;;;;;;6.10;1.80;;;;;;;11.40;56.48;102382.17;105609;1310;22569;-59
2024/04/12 01:09:11;;;;;;;4.40;2.00;;;;;;;11.41;57.01;102380.98;105696;1311;22675;-58
2024/04/12 01:11:38;;;;;;;3.10;1.70;;;;;;;11.45;57.30;102383.55;105605;1311;22864;-59
2024/04/12 01:14:10;;;;;;;4.40;1.90;;;;;;;11.45;57.84;102387.36;105633;1311;22711;-58
2024/04/12 01:16:38;;;;;;;4.20;1.80;;;;;;;11.43;57.56;102389.10;105669;1311;22499;-60
2024/04/12 01:19:05;;;;;;;7.20;2.10;;;;;;;11.45;57.18;102393.42;105493;1295;22873;-58
2024/04/12 01:21:31;;;;;;;4.10;2.00;;;;;;;11.50;57.34;102391.55;105709;1307;22737;-58
2024/04/12 01:23:57;;;;;;;5.60;2.10;;;;;;;11.51;57.18;102394.15;106005;1306;22665;-59
2024/04/12 01:26:24;;;;;;;7.10;2.40;;;;;;;11.53;57.31;102393.31;106124;1310;25942;-58
2024/04/12 01:28:52;;;;;;;3.60;2.40;;;;;;;11.58;57.72;102390.75;105774;1288;22543;-58
2024/04/12 01:31:18;;;;;;;6.10;2.50;;;;;;;11.59;57.40;102392.49;105661;1304;22630;-60
2024/04/12 01:33:49;;;;;;;7.20;2.50;;;;;;;11.59;57.33;102389.91;105657;1307;22198;-59
2024/04/12 01:36:21;;;;;;;5.20;1.80;;;;;;;11.61;57.35;102385.43;105613;1311;25492;-62
2024/04/12 01:38:58;;;;;;;2.80;2.00;;;;;;;11.64;57.27;102382.52;105797;1295;22509;-59
2024/04/12 01:41:25;;;;;;;6.70;2.20;;;;;;;11.68;57.23;102383.92;105655;1308;24274;-59
2024/04/12 01:43:52;;;;;;;3.00;2.00;;;;;;;11.68;57.27;102383.41;105725;1304;25521;-59
2024/04/12 01:46:26;;;;;;;7.20;2.50;;;;;;;11.68;57.14;102386.18;105872;1307;22667;-59
2024/04/12 01:49:05;;;;;;;5.70;2.60;;;;;;;11.70;57.53;102383.77;105752;1310;22665;-59
2024/04/12 01:51:35;;;;;;;4.90;2.60;;;;;;;11.70;57.57;102380.49;105883;1302;22680;-58
2024/04/12 01:54:13;;;;;;;3.40;2.10;;;;;;;11.68;57.52;102373.05;105418;1313;22709;-61
2024/04/12 01:56:47;;;;;;;5.00;1.90;;;;;;;11.67;57.60;102371.31;105600;1304;24270;-60
2024/04/12 01:59:21;;;;;;;3.60;1.80;;;;;;;11.68;57.31;102367.17;105698;1310;22638;-62
2024/04/12 02:01:48;;;;;;;6.30;2.30;;;;;;;11.69;57.30;102366.65;105965;1291;22775;-60
2024/04/12 02:04:21;;;;;;;4.50;2.30;;;;;;;11.70;57.30;102360.28;105722;1310;22546;-59
2024/04/12 02:06:48;;;;;;;2.50;1.50;;;;;;;11.72;57.36;102355.63;105690;1310;22657;-58
2024/04/12 02:09:19;;;;;;;3.20;2.20;;;;;;;11.70;57.84;102346.63;105772;1310;22604;-60
2024/04/12 02:11:47;;;;;;;3.10;2.20;;;;;;;11.68;57.80;102350.59;106703;1292;22686;-59
2024/04/12 02:14:13;;;;;;;6.30;2.10;;;;;;;11.66;57.82;102347.46;106820;1305;22575;-59
2024/04/12 02:16:39;;;;;;;7.90;2.00;;;;;;;11.68;57.78;102351.28;106840;1311;22876;-59
2024/04/12 02:19:11;;;;;;;6.00;1.80;;;;;;;11.70;57.84;102348.19;106841;1311;22695;-58
2024/04/12 02:21:38;;;;;;;4.80;1.80;;;;;;;11.67;58.12;102344.53;106886;1293;22530;-57
2024/04/12 02:24:11;;;;;;;4.30;2.20;;;;;;;11.63;57.87;102344.51;107008;1310;23058;-59
2024/04/12 02:26:38;;;;;;;4.10;2.20;;;;;;;11.64;57.88;102342.61;107125;1304;22616;-58
2024/04/12 02:29:04;;;;;;;7.30;2.70;;;;;;;11.67;57.86;102340.55;107038;1309;22697;-57
2024/04/12 02:31:31;;;;;;;4.30;2.10;;;;;;;11.69;58.08;102337.64;106978;1297;23117;-58
2024/04/12 02:33:59;;;;;;;4.20;2.00;;;;;;;11.70;58.17;102338.52;106958;1311;22615;-59
2024/04/12 02:36:30;;;;;;;;;;;;;;;11.72;58.16;102339.73;106773;1311;22599;-58
2024/04/12 02:38:56;;;;;;;5.60;2.50;;;;;;;11.73;58.26;102341.48;106968;1304;22567;-57
2024/04/12 02:41:21;;;;;;;6.00;2.90;;;;;;;11.74;58.49;102341.83;106957;1291;24217;-58
2024/04/12 02:43:51;;;;;;;3.90;2.10;;;;;;;11.73;59.41;102346.14;106771;1310;22847;-57
2024/04/12 02:46:23;;;;;;;3.70;2.50;;;;;;;11.69;58.51;102342.48;107070;1304;23007;-58
2024/04/12 02:48:51;;;;;;;10.00;2.30;;;;;;;11.69;58.42;102340.23;107005;1309;24225;-59
2024/04/12 02:51:22;;;;;;;4.40;2.40;;;;;;;11.70;58.72;102338.16;106856;1294;22822;-57
2024/04/12 02:53:50;;;;;;;6.70;2.70;;;;;;;11.69;58.78;102337.98;106872;1305;22611;-58
2024/04/12 02:56:18;;;;;;;3.90;2.10;;;;;;;11.69;59.15;102334.02;106890;1304;22599;-58
2024/04/12 02:58:51;;;;;;;7.80;2.30;;;;;;;11.66;58.87;102330.36;106698;1304;22521;-58
2024/04/12 03:01:20;;;;;;;5.30;2.70;;;;;;;11.69;58.93;102335.05;106336;1291;22641;-57
2024/04/12 03:03:49;;;;;;;4.90;2.60;;;;;;;11.66;59.28;102332.61;107029;1304;22600;-58
2024/04/12 03:06:25;;;;;;;4.30;2.90;;;;;;;11.66;59.93;102331.39;106792;1304;22682;-57
2024/04/12 03:08:53;;;;;;;3.90;2.40;;;;;;;11.66;60.00;102330.19;106870;1309;22616;-57
2024/04/12 03:11:26;;;;;;;6.50;2.60;;;;;;;11.65;60.45;102328.63;106956;1288;22590;-59
2024/04/12 03:14:03;;;;;;;8.30;3.40;;;;;;;11.65;60.36;102331.91;106900;1305;22261;-58
2024/04/12 03:16:30;;;;;;;5.90;2.70;;;;;;;11.67;59.97;102338.66;106915;1311;22714;-59
2024/04/12 03:18:58;;;;;;;3.60;2.40;;;;;;;11.70;59.91;102341.11;106796;1311;22730;-57
2024/04/12 03:21:30;;;;;;;3.70;2.20;;;;;;;11.74;59.98;102341.65;104459;1310;22620;-58
2024/04/12 03:23:57;;;;;;;8.10;2.60;;;;;;;11.78;59.79;102343.61;104364;1304;24446;-58
2024/04/12 03:26:23;;;;;;;5.50;2.80;;;;;;;11.80;59.78;102344.14;104786;1309;22610;-57
2024/04/12 03:28:53;;;;;;;6.90;3.00;;;;;;;11.83;59.75;102343.13;104447;1310;24242;-59
2024/04/12 03:31:19;;;;;;;4.80;2.70;;;;;;;11.85;59.66;102339.69;104574;1289;22565;-58
2024/04/12 03:33:44;;;;;;;5.00;2.60;;;;;;;11.84;59.85;102339.86;104341;1302;22562;-58
2024/04/12 03:36:26;;;;;;;5.00;2.80;;;;;;;11.84;59.87;102336.91;104336;1297;22606;-59
2024/04/12 03:41:56;;;;;;;6.40;2.90;;;;;;;11.81;60.12;102338.27;104265;1288;25337;-60
2024/04/12 03:44:25;;;;;;;9.40;2.70;;;;;;;11.76;60.16;102336.84;104513;1310;22568;-59
2024/04/12 03:46:52;;;;;;;5.70;2.90;;;;;;;11.76;60.16;102338.05;104705;1305;22724;-59
2024/04/12 03:49:20;;;;;;;8.10;3.00;;;;;;;11.78;60.28;102342.23;104474;1310;22613;-59
2024/04/12 03:51:48;;;;;;;6.80;2.60;;;;;;;11.80;60.33;102344.14;104556;1304;22563;-60
2024/04/12 03:54:17;;;;;;;5.20;2.30;;;;;;;11.80;60.35;102345.35;104397;1304;22746;-59
2024/04/12 03:56:44;;;;;;;7.60;3.30;;;;;;;11.80;60.45;102347.77;104394;1299;22600;-60
2024/04/12 03:59:09;;;;;;;5.00;2.50;;;;;;;11.79;60.45;102348.29;104337;1311;24493;-60
2024/04/12 04:01:37;;;;;;;8.80;3.00;;;;;;;11.78;60.45;102345.15;104352;1311;26046;-58
2024/04/12 04:04:10;;;;;;;4.80;2.20;;;;;;;11.73;60.28;102346.65;104476;1291;22574;-59
2024/04/12 04:06:38;;;;;;;5.90;2.50;;;;;;;11.71;60.52;102349.23;104195;1304;22610;-59
2024/04/12 04:09:11;;;;;;;5.60;2.50;;;;;;;11.71;60.63;102351.48;105087;1305;22878;-60
2024/04/12 04:11:42;;;;;;;6.40;2.40;;;;;;;11.68;60.83;102349.73;104568;1304;26516;-59
2024/04/12 04:14:13;;;;;;;6.10;2.90;;;;;;;11.66;60.92;102355.76;104506;1294;22690;-61
2024/04/12 04:16:42;;;;;;;5.50;2.90;;;;;;;11.68;61.01;102357.33;104608;1304;22584;-59
2024/04/12 04:19:12;;;;;;;9.40;2.30;;;;;;;11.68;60.96;102356.64;104707;1311;22649;-59
2024/04/12 04:21:41;;;;;;;4.40;2.30;;;;;;;11.65;61.23;102360.41;104350;1298;22603;-58
2024/04/12 04:24:11;;;;;;;5.00;2.60;;;;;;;11.67;61.10;102358.52;104659;1291;22568;-59
2024/04/12 04:26:40;;;;;;;4.80;2.80;;;;;;;11.69;61.18;102356.30;104486;1305;22837;-58
2024/04/12 04:29:10;;;;;;;6.10;2.50;;;;;;;11.71;61.36;102355.27;104432;1301;22581;-59
2024/04/12 04:31:50;;;;;;;6.50;2.60;;;;;;;11.73;61.55;102357.20;104516;1303;22671;-60
2024/04/12 04:34:17;;;;;;;6.00;2.30;;;;;;;11.78;61.76;102357.77;104616;1297;23757;-59
2024/04/12 04:36:48;;;;;;;4.70;2.40;;;;;;;11.81;61.79;102360.73;103932;1310;22764;-60
2024/04/12 04:39:15;;;;;;;6.20;2.70;;;;;;;11.81;61.58;102360.23;104339;1311;22997;-59
2024/04/12 04:41:45;;;;;;;8.70;2.90;;;;;;;11.82;61.71;102364.55;104343;1304;22597;-60
2024/04/12 04:44:14;;;;;;;5.60;2.50;;;;;;;11.87;62.09;102367.69;104512;1292;25337;-60
2024/04/12 04:46:41;;;;;;;5.00;2.50;;;;;;;11.90;61.83;102370.65;104891;1305;22687;-60
2024/04/12 04:49:07;;;;;;;4.40;2.70;;;;;;;11.92;62.48;102370.84;104720;1307;24341;-60
2024/04/12 04:51:35;;;;;;;6.30;2.70;;;;;;;11.95;62.37;102367.73;104976;1310;24242;-61
2024/04/12 04:54:02;;;;;;;5.30;2.50;;;;;;;12.00;62.43;102365.15;104892;1297;22677;-60
2024/04/12 04:56:30;;;;;;;10.40;2.70;;;;;;;12.04;63.09;102365.86;104728;1311;22581;-60
2024/04/12 04:58:56;;;;;;;7.00;2.60;;;;;;;12.07;63.21;102368.83;105060;1311;22560;-57
2024/04/12 05:01:25;;;;;;;8.00;2.70;;;;;;;12.11;62.71;102372.48;103736;1304;22637;-60
2024/04/12 05:03:52;;;;;;;6.80;2.80;;;;;;;12.17;63.37;102370.79;103810;1291;22623;-60
2024/04/12 05:06:27;;;;;;;5.40;2.50;;;;;;;12.19;63.19;102372.36;104150;1301;23056;-59
2024/04/12 05:08:57;;;;;;;7.10;2.70;;;;;;;12.24;62.99;102374.30;103760;1304;22717;-59
2024/04/12 05:11:29;;;;;;;6.00;2.50;;;;;;;12.28;62.89;102376.55;106324;1303;22833;-58
2024/04/12 05:14:05;;;;;;;1.80;1.70;;;;;;;12.34;63.07;102376.23;105795;1295;25915;-60
2024/04/12 05:16:32;;;;;;;3.80;2.40;;;;;;;12.39;63.72;102374.02;103614;1297;22564;-60
2024/04/12 05:19:07;;;;;;;8.60;2.50;;;;;;;12.42;64.19;102374.90;103628;1311;25067;-61
2024/04/12 05:21:35;;;;;;;8.00;2.80;;;;;;;12.45;64.90;102375.95;103579;1304;22560;-61
2024/04/12 05:24:02;;;;;;;8.20;2.40;;;;;;;12.48;64.90;102380.95;106839;1288;22627;-61
2024/04/12 05:26:29;;;;;;;8.20;2.50;;;;;;;12.50;64.39;102379.40;103528;1298;25036;-59
2024/04/12 05:28:56;;;;;;;3.70;2.30;;;;;;;12.54;64.64;102378.73;103686;1304;24271;-60
2024/04/12 05:31:21;;;;;;;;;;;;;;;12.58;64.63;102381.68;103613;1310;24029;-60
2024/04/12 05:33:49;;;;;;;7.10;3.00;;;;;;;12.60;65.02;102380.14;103484;1288;22577;-59
2024/04/12 05:36:16;;;;;;;7.40;3.00;;;;;;;12.63;64.78;102383.43;103651;1298;23977;-60
2024/04/12 05:38:41;;;;;;;5.50;2.40;;;;;;;12.66;64.90;102380.34;104317;1304;22819;-60
2024/04/12 05:41:09;;;;;;;4.60;2.20;;;;;;;12.71;65.44;102380.87;105375;1312;22675;-59
2024/04/12 05:43:38;;;;;;;4.90;2.60;;;;;;;12.75;64.32;102383.13;106362;1311;22510;-58
2024/04/12 05:46:05;;;;;;;4.90;2.90;;;;;;;12.83;64.85;102385.77;106559;1291;23032;-60
2024/04/12 05:48:31;;;;;;;7.00;3.10;;;;;;;12.87;64.81;102382.14;106585;1303;22576;-58
2024/04/12 05:50:58;;;;;;;6.00;2.80;;;;;;;12.93;64.37;102382.85;106574;1310;22271;-58
2024/04/12 05:53:24;;;;;;;;;;;;;;;13.01;64.33;102383.02;106765;1310;22664;-57
2024/04/12 05:56:20;;;;;;;6.30;3.50;;;;;;;13.10;65.21;102386.49;106540;1293;22138;-59
2024/04/12 05:58:40;;;;;;;6.60;3.50;;;;;;;13.14;64.82;102387.71;106641;1297;22600;-59
2024/04/12 06:01:09;;;;;;;4.10;3.00;;;;;;;13.18;65.22;102383.94;106643;1304;22612;-59
2024/04/12 06:03:42;;;;;;;6.70;3.50;;;;;;;13.22;65.47;102382.39;106685;1304;22317;-57
2024/04/12 06:06:12;;;;;;;4.90;3.20;;;;;;;13.26;65.47;102379.80;107047;1291;22605;-58
2024/04/12 06:08:38;;;;;;;8.90;4.30;;;;;;;13.27;65.79;102378.76;107082;1310;22705;-57
2024/04/12 06:11:08;;;;;;;5.40;3.20;;;;;;;13.32;65.52;102379.80;107089;1310;22539;-59
2024/04/12 06:13:35;;;;;;;4.60;2.90;;;;;;;13.40;65.84;102378.77;107061;1310;22583;-58
2024/04/12 06:16:02;;;;;;;6.80;3.50;;;;;;;13.45;66.14;102380.17;106958;1293;22579;-59
2024/04/12 06:18:28;;;;;;;7.20;4.70;;;;;;;13.49;66.24;102378.44;106656;1298;22575;-59
2024/04/12 06:20:57;;;;;;;6.10;4.00;;;;;;;13.55;65.62;102378.05;106867;1304;22597;-59
2024/04/12 06:23:23;;;;;;;6.30;4.10;;;;;;;13.64;65.44;102378.40;106894;1311;22868;-58
2024/04/12 06:25:49;;;;;;;7.20;3.80;;;;;;;13.72;65.78;102378.23;106953;1291;22600;-59
2024/04/12 06:28:19;;;;;;;7.80;4.10;;;;;;;13.74;65.60;102377.54;107070;1307;22574;-58
2024/04/12 06:30:47;;;;;;;7.80;4.10;;;;;;;13.79;65.63;102378.74;107059;1304;22638;-59
2024/04/12 06:33:22;;;;;;;5.80;3.70;;;;;;;13.85;66.18;102375.27;106924;1300;22623;-59
2024/04/12 06:35:50;;;;;;;6.10;3.70;;;;;;;13.79;65.93;102375.62;106683;1294;296844;-57
2024/04/12 06:38:22;;;;;;;8.60;2.50;;;;;;;13.81;65.87;102372.85;106618;1304;22775;-59
2024/04/12 06:40:58;;;;;;;5.00;2.90;;;;;;;13.85;66.35;102370.23;106236;1297;22645;-60
2024/04/12 06:43:23;;;;;;;7.70;3.40;;;;;;;13.88;66.06;102369.36;105756;1304;22585;-58
2024/04/12 06:46:08;;;;;;;3.90;2.90;;;;;;;13.90;65.94;102372.14;105299;1293;22568;-57
2024/04/12 06:48:35;;;;;;;4.80;3.30;;;;;;;13.96;65.81;102370.75;105930;1304;22622;-58
2024/04/12 06:51:04;;;;;;;7.40;2.80;;;;;;;14.00;65.97;102371.77;104430;1303;22931;-61
2024/04/12 06:53:34;;;;;;;4.70;2.50;;;;;;;14.09;66.16;102375.89;103457;1309;22560;-61
2024/04/12 06:56:05;;;;;;;11.30;2.60;;;;;;;14.08;66.14;102371.90;103827;1294;22599;-61
2024/04/12 06:58:31;;;;;;;4.20;2.40;;;;;;;14.16;65.88;102375.70;103591;1304;22564;-59
2024/04/12 07:00:58;;;;;;;9.50;2.30;;;;;;;14.27;65.85;102373.94;103427;1300;25465;-60
2024/04/12 07:03:24;;;;;;;3.80;2.60;;;;;;;14.33;65.99;102374.45;103546;1297;22564;-60
2024/04/12 07:05:53;;;;;;;5.00;2.90;;;;;;;14.34;66.07;102377.90;103510;1289;24275;-61
2024/04/12 07:08:22;;;;;;;7.90;4.90;;;;;;;14.31;66.20;102380.70;103567;1310;22944;-61
2024/04/12 07:10:48;;;;;;;11.80;6.80;;;;;;;14.33;66.02;102379.64;103473;1310;22785;-61
2024/04/12 07:13:21;;;;;;;11.10;4.90;;;;;;;14.40;66.17;102382.23;103703;1304;22719;-61
2024/04/12 07:15:50;;;;;;;6.00;3.50;;;;;;;14.44;66.16;102378.25;103696;1288;26552;-61
2024/04/12 07:18:22;;;;;;;6.70;3.60;;;;;;;14.51;66.03;102377.19;103556;1311;25464;-60
2024/04/12 07:20:50;;;;;;;4.30;3.00;;;;;;;14.58;65.89;102377.80;107326;1310;22381;-61
2024/04/12 07:23:30;;;;;;;5.40;2.80;;;;;;;14.63;66.35;102375.55;107316;1304;22385;-59
2024/04/12 07:25:59;;;;;;;5.80;3.80;;;;;;;14.67;66.05;102373.09;107207;1302;23617;-59
2024/04/12 07:28:28;;;;;;;7.60;4.20;;;;;;;14.71;65.96;102372.02;107085;1303;26233;-59
2024/04/12 07:30:53;;;;;;;8.10;4.00;;;;;;;14.77;65.86;102369.91;103688;1304;22899;-59
2024/04/12 07:33:24;;;;;;;5.00;3.00;;;;;;;14.89;66.10;102374.89;103546;1294;22936;-59
2024/04/12 07:35:59;;;;;;;4.80;2.70;;;;;;;14.95;66.03;102376.60;103574;1304;22559;-59
2024/04/12 07:38:24;;;;;;;5.10;2.60;;;;;;;14.97;65.80;102373.63;103510;1294;22655;-59
2024/04/12 07:40:52;;;;;;;2.70;1.90;;;;;;;14.98;65.90;102374.48;103403;1297;22551;-59
2024/04/12 07:43:17;;;;;;;4.60;2.30;;;;;;;15.06;65.88;102367.48;103275;1295;24296;-59
2024/04/12 07:45:43;;;;;;;3.70;2.50;;;;;;;15.18;65.74;102367.90;103504;1304;25361;-59
2024/04/12 07:48:22;;;;;;;5.90;2.70;;;;;;;15.31;65.57;102370.06;103555;1291;23851;-60
2024/04/12 07:50:54;;;;;;;5.80;2.50;;;;;;;15.43;65.51;102373.98;103511;1307;22553;-58
2024/04/12 07:56:07;;;;;;;3.50;1.90;;;;;;;15.71;65.51;102371.31;103664;1307;25333;-60
2024/04/12 07:58:36;;;;;;;;;;;;;;;15.87;65.08;102368.02;103497;1295;22565;-60
2024/04/12 08:01:09;;;;;;;4.30;2.40;;;;;;;15.98;65.00;102370.54;104295;1304;26750;-59
2024/04/12 08:03:37;;;;;;;2.60;2.10;;;;;;;16.03;64.54;102374.13;104578;1304;22556;-59
2024/04/12 08:06:03;;;;;;;2.90;1.80;;;;;;;15.99;64.46;102377.65;104513;1311;22595;-60
2024/04/12 08:08:43;;;;;;;4.20;2.30;;;;;;;16.04;64.39;102377.95;104583;1300;25915;-60
2024/04/12 08:11:31;;;;;;;3.20;2.00;;;;;;;16.02;64.27;102375.02;104655;1310;22576;-60
2024/04/12 08:14:05;;;;;;;6.50;2.60;;;;;;;15.98;64.59;102375.56;105826;1304;22605;-61
2024/04/12 08:16:36;;;;;;;3.40;2.20;;;;;;;16.06;64.46;102376.01;107726;1304;21973;-61
2024/04/12 08:19:13;;;;;;;5.60;2.10;;;;;;;16.07;64.20;102375.30;107599;1293;22767;-60
2024/04/12 08:21:44;;;;;;;5.30;2.10;;;;;;;15.96;64.31;102375.77;106734;1310;23333;-61
2024/04/12 08:24:14;;;;;;;6.50;2.70;;;;;;;15.97;64.26;102371.58;106848;1307;22816;-61
2024/04/12 08:26:48;;;;;;;4.50;2.90;;;;;;;15.92;64.32;102372.67;106822;1301;22522;-61
2024/04/12 08:29:23;;;;;;;4.80;2.30;;;;;;;15.90;64.45;102374.61;106758;1291;23731;-60
2024/04/12 08:34:48;;;;;;;5.80;3.10;;;;;;;16.00;64.18;102370.67;104209;1296;22544;-61
2024/04/12 08:37:17;;;;;;;4.10;2.60;;;;;;;16.16;64.34;102365.27;104614;1307;22523;-60
2024/04/12 08:39:43;;;;;;;6.40;2.80;;;;;;;16.31;63.87;102363.86;106252;1294;22570;-60
2024/04/12 08:42:11;;;;;;;5.90;2.90;;;;;;;16.35;63.96;102356.16;104259;1304;25222;-60
2024/04/12 08:44:37;;;;;;;3.50;2.40;;;;;;;16.52;63.83;102356.47;104605;1310;22509;-61
2024/04/12 08:49:51;;;;;;;;;;;;;;;16.66;63.47;102356.13;106479;1288;22888;-61
2024/04/12 08:52:30;;;;;;;5.70;2.30;;;;;;;16.78;63.15;102356.31;104280;1304;22576;-61
2024/04/12 08:55:20;;;;;;;6.20;3.50;;;;;;;17.16;62.84;102347.19;104034;1297;22555;-61
2024/04/12 08:57:47;;;;;;;3.30;2.10;;;;;;;17.68;61.81;102344.39;107576;1303;22385;-61
2024/04/12 09:00:21;;;;;;;3.30;1.90;;;;;;;18.04;62.07;102348.59;105636;1292;22522;-61
2024/04/12 09:02:58;;;;;;;3.10;1.80;;;;;;;18.43;61.01;102347.98;104732;1304;22607;-61
2024/04/12 09:05:42;;;;;;;2.20;1.50;;;;;;;18.50;59.85;102342.41;105304;1300;22522;-60
2024/04/12 09:08:08;;;;;;;2.30;1.80;;;;;;;18.19;59.84;102339.23;104518;1286;22510;-60
2024/04/12 09:10:34;;;;;;;2.60;1.40;;;;;;;18.03;60.63;102339.39;104737;1304;24207;-58
2024/04/12 09:13:14;;;;;;;1.40;1.20;;;;;;;17.83;60.34;102340.46;104863;1307;22636;-58
2024/04/12 09:15:43;;;;;;;1.90;1.20;;;;;;;17.72;60.57;102344.84;104740;1310;22567;-58
2024/04/12 09:18:15;;;;;;;1.90;1.40;;;;;;;17.67;60.70;102343.20;104747;1291;22631;-58
2024/04/12 09:20:46;;;;;;;3.60;1.30;;;;;;;17.57;60.52;102347.73;103996;1291;22594;-60
2024/04/12 09:23:15;;;;;;;2.50;1.40;;;;;;;17.65;60.36;102350.20;103538;1297;22587;-59
2024/04/12 09:25:55;;;;;;;1.30;1.20;;;;;;;17.66;59.87;102355.09;103351;1306;22599;-60
2024/04/12 09:28:23;;;;;;;3.40;1.70;;;;;;;17.51;59.66;102356.72;103336;1304;25431;-59
2024/04/12 09:33:38;;;;;;;2.60;1.50;;;;;;;17.23;60.47;102353.00;103847;1303;22750;-60
2024/04/12 09:36:13;;;;;;;2.70;1.70;;;;;;;17.28;60.33;102351.35;103815;1305;22554;-60
2024/04/12 09:39:06;;;;;;;4.00;1.60;;;;;;;17.37;60.44;102355.04;104375;1310;22716;-60
2024/04/12 09:41:31;;;;;;;2.80;1.90;;;;;;;17.43;60.48;102350.92;103676;1288;24287;-61
2024/04/12 09:44:03;;;;;;;3.00;1.60;;;;;;;17.37;60.59;102343.02;104170;1311;22560;-61
2024/04/12 10:37:23;;;;;;;4.00;1.80;;;;;;;17.38;60.59;102337.41;103873;1310;23029;-59
2024/04/12 10:39:44;;;;;;;2.10;1.00;;;;;;;18.10;56.47;102300.48;106860;1298;26510;-59
2024/04/12 10:42:16;;;;;;;2.60;1.00;;;;;;;17.96;57.14;102297.45;103254;1294;22563;-59
2024/04/12 10:44:51;;;;;;;3.40;1.00;;;;;;;17.86;56.98;102300.96;103666;1311;24301;-60
2024/04/12 10:47:20;;;;;;;2.50;1.10;;;;;;;17.73;56.95;102295.12;103325;1306;22668;-61
2024/04/12 10:49:50;;;;;;;2.50;0.90;;;;;;;17.79;57.09;102292.20;103670;1304;25450;-60
2024/04/12 10:52:34;;;;;;;7.20;1.40;;;;;;;17.79;57.26;102288.02;103562;1291;22739;-60
2024/04/12 10:55:10;;;;;;;3.10;1.70;;;;;;;17.71;57.02;102287.13;103627;1310;22564;-60
2024/04/12 10:57:42;;;;;;;2.50;1.40;;;;;;;17.48;57.23;102282.33;103626;1304;25249;-59
2024/04/12 11:00:14;;;;;;;2.80;1.20;;;;;;;17.44;57.39;102279.95;103672;1310;24248;-61
2024/04/12 11:02:42;;;;;;;3.70;1.30;;;;;;;17.43;57.60;102274.73;103746;1308;22576;-61
2024/04/12 11:05:50;;;;;;;2.20;1.40;;;;;;;17.35;57.89;102270.17;103529;1304;22588;-59
2024/04/12 11:07:58;;;;;;;2.00;1.10;;;;;;;17.40;58.28;102266.08;103273;1297;22567;-60
2024/04/12 11:10:38;;;;;;;4.10;1.40;;;;;;;17.62;58.15;102262.01;103622;1311;22631;-59
2024/04/12 11:13:08;;;;;;;2.20;1.30;;;;;;;17.89;57.98;102259.73;103570;1288;22644;-61
2024/04/12 11:32:14;;;;;;;2.80;2.10;;;;;;;17.93;57.39;102254.08;103379;1295;22617;-60
2024/04/12 11:34:41;;;;;;;1.70;1.30;;;;;;;17.85;57.53;102258.43;103708;1304;22644;-61
2024/04/12 11:37:09;;;;;;;2.50;1.60;;;;;;;17.72;57.44;102255.88;104221;1301;22615;-61
2024/04/12 11:39:38;;;;;;;1.70;1.60;;;;;;;17.49;57.51;102249.17;103636;1310;22681;-60
2024/04/12 11:42:07;;;;;;;3.80;1.20;;;;;;;17.26;57.78;102246.80;103845;1289;22603;-61
2024/04/12 11:44:36;;;;;;;3.00;1.40;;;;;;;17.12;58.24;102244.80;103475;1304;22573;-60
2024/04/12 11:47:03;;;;;;;1.80;1.50;;;;;;;17.13;58.35;102247.41;103451;1310;24937;-60
2024/04/12 11:49:41;;;;;;;1.90;1.50;;;;;;;17.08;58.35;102245.40;103308;1306;24376;-61
2024/04/12 11:52:15;;;;;;;3.20;2.80;;;;;;;16.97;58.52;102242.97;103515;1288;22560;-61
2024/04/12 11:54:42;;;;;;;3.70;2.90;;;;;;;16.87;58.58;102225.71;103401;1302;22598;-59
2024/04/12 11:57:11;;;;;;;4.00;3.20;;;;;;;16.88;59.30;102221.69;103741;1304;22956;-58
2024/04/12 11:59:37;;;;;;;1.70;1.60;;;;;;;17.02;59.03;102223.38;103563;1310;22664;-59
2024/04/12 12:02:05;;;;;;;2.80;1.70;;;;;;;17.06;59.16;102221.04;103684;1291;25420;-61
2024/04/12 12:04:32;;;;;;;1.60;1.50;;;;;;;17.03;59.74;102218.48;103422;1294;22596;-65
2024/04/12 12:06:59;;;;;;;2.30;1.80;;;;;;;17.09;59.49;102216.80;104284;1297;22562;-61
2024/04/12 12:09:31;;;;;;;2.20;1.70;;;;;;;17.19;59.53;102210.51;103580;1310;22673;-61
2024/04/12 12:12:00;;;;;;;5.70;2.30;;;;;;;17.28;59.17;102220.28;103560;1311;23851;-61
2024/04/12 12:14:26;;;;;;;2.40;2.00;;;;;;;17.23;59.28;102214.79;107395;1291;22350;-62
2024/04/12 12:16:51;;;;;;;4.70;2.90;;;;;;;17.28;59.25;102213.31;107449;1305;22313;-62
2024/04/12 12:19:18;;;;;;;3.50;2.90;;;;;;;17.28;58.95;102217.48;107451;1307;22252;-62
2024/04/12 12:21:44;;;;;;;;;;;;;;;17.28;58.88;102219.40;107465;1305;22449;-62
2024/04/12 12:24:10;;;;;;;3.00;2.80;;;;;;;17.24;58.91;102204.65;107344;1294;22498;-62
2024/04/12 12:26:39;;;;;;;3.80;3.30;;;;;;;17.32;58.95;102203.99;105703;1304;22586;-61
2024/04/12 12:29:06;;;;;;;3.40;3.10;;;;;;;17.52;58.59;102196.29;103511;1304;22557;-60
2024/04/12 12:31:32;;;;;;;3.70;3.20;;;;;;;17.64;58.57;102190.46;107338;1311;22320;-61
2024/04/12 12:33:58;;;;;;;2.70;2.50;;;;;;;17.89;58.38;102185.23;103764;1301;22715;-62
2024/04/12 12:36:25;;;;;;;5.30;2.70;;;;;;;18.20;58.13;102178.44;103667;1294;23096;-60
2024/04/12 12:38:51;;;;;;;3.50;2.50;;;;;;;18.39;57.48;102175.19;103725;1291;22613;-62
2024/04/12 12:41:17;;;;;;;3.40;3.10;;;;;;;18.42;57.02;102168.13;103776;1302;22598;-61
2024/04/12 12:43:47;;;;;;;3.70;3.00;;;;;;;18.44;57.27;102167.39;103661;1294;22716;-61
2024/04/12 12:46:21;;;;;;;5.70;3.10;;;;;;;18.54;56.63;102165.23;103717;1311;22761;-62
2024/04/12 12:48:49;;;;;;;3.20;2.90;;;;;;;18.49;56.18;102161.51;103788;1297;25491;-62
2024/04/12 12:51:16;;;;;;;4.00;3.30;;;;;;;18.47;56.32;102158.92;103785;1304;22719;-61
2024/04/12 12:53:43;;;;;;;4.20;2.80;;;;;;;18.27;56.17;102164.14;103984;1291;23674;-62